This is the latest recevied weather packets stored in our database for station/object G8PZT. If no packets are shown the sender has not sent any weather packets the latest 10 day(s).
| Time | Temp. | Humidity | Pressure | Rain* | Wind** | Luminosity | Snow |
|---|---|---|---|---|---|---|---|
| 1787745520 | 26.11° C | 20% | - | 0 mm | - | - | - |
| 1787744920 | 27.22° C | 19% | - | 0 mm | - | - | - |
| 1787744403 | 26.67° C | 19% | - | 0 mm | - | - | - |
| 1787744320 | 26.67° C | 19% | - | 0 mm | - | - | - |
| 1787743720 | 25.56° C | 22% | - | 0 mm | - | - | - |
| 1787743202 | 26.67° C | 21% | - | 0 mm | - | - | - |
| 1787743120 | 26.67° C | 20% | - | 0 mm | - | - | - |
| 1787742519 | 26.67° C | 20% | - | 0 mm | - | - | - |
| 1787742002 | 26.11° C | 22% | - | 0 mm | - | - | - |
| 1787741919 | 26.11° C | 22% | - | 0 mm | - | - | - |
| 1787741319 | 26.11° C | 21% | - | 0 mm | - | - | - |
| 1787740802 | 26.67° C | 21% | - | 0 mm | - | - | - |
| 1787740720 | 26.67° C | 20% | - | 0 mm | - | - | - |
| 1787740120 | 26.67° C | 22% | - | 0 mm | - | - | - |
| 1787739519 | 25.56° C | 27% | - | 0 mm | - | - | - |
| 1787738919 | 26.11° C | 23% | - | 0 mm | - | - | - |
| 1787738403 | 25.56° C | 27% | - | 0 mm | - | - | - |
| 1787738319 | 25° C | 25% | - | 0 mm | - | - | - |
| 1787737719 | 25° C | 27% | - | 0 mm | - | - | - |
| 1787737203 | 25.56° C | 25% | - | 0 mm | - | - | - |
| 1787737119 | 25.56° C | 25% | - | 0 mm | - | - | - |
| 1787736519 | 25° C | 28% | - | 0 mm | - | - | - |
| 1787736002 | 24.44° C | 30% | - | 0 mm | - | - | - |
| 1787735919 | 23.89° C | 31% | - | 0 mm | - | - | - |
| 1787735318 | 23.33° C | 32% | - | 0 mm | - | - | - |
* Rain latest hour (hover to see other rain measurements)
** Current wind speed in m/s (hover to see current wind gust speed)